sensor_id;sensor_type;location;lat;lon;timestamp;pressure;altitude;pressure_sealevel;temperature;humidity
63343;BME280;49465;57.664;39.686;2023-03-01T00:01:09;99182.28;;;-0.94;49.93
63343;BME280;49465;57.664;39.686;2023-03-01T00:03:36;99175.28;;;-1.41;50.66
63343;BME280;49465;57.664;39.686;2023-03-01T00:06:04;99177.59;;;-0.83;49.50
63343;BME280;49465;57.664;39.686;2023-03-01T00:08:30;99171.72;;;-1.36;50.87
63343;BME280;49465;57.664;39.686;2023-03-01T00:11:13;99174.00;;;-0.78;49.56
63343;BME280;49465;57.664;39.686;2023-03-01T00:13:41;99172.59;;;-0.87;49.09
63343;BME280;49465;57.664;39.686;2023-03-01T00:16:16;99181.59;;;-0.74;49.24
63343;BME280;49465;57.664;39.686;2023-03-01T00:18:42;99177.31;;;-0.75;49.37
63343;BME280;49465;57.664;39.686;2023-03-01T00:21:09;99181.28;;;-0.90;48.95
63343;BME280;49465;57.664;39.686;2023-03-01T00:23:37;99179.56;;;-1.66;50.86
63343;BME280;49465;57.664;39.686;2023-03-01T00:26:12;99184.38;;;-1.57;51.41
63343;BME280;49465;57.664;39.686;2023-03-01T00:28:39;99178.75;;;-1.68;51.00
63343;BME280;49465;57.664;39.686;2023-03-01T00:31:07;99179.69;;;-1.71;51.29
63343;BME280;49465;57.664;39.686;2023-03-01T00:33:34;99182.06;;;-0.88;49.54
63343;BME280;49465;57.664;39.686;2023-03-01T00:36:02;99178.31;;;-1.54;50.81
63343;BME280;49465;57.664;39.686;2023-03-01T00:38:29;99184.09;;;-0.72;49.20
63343;BME280;49465;57.664;39.686;2023-03-01T00:41:02;99178.31;;;-1.54;50.12
63343;BME280;49465;57.664;39.686;2023-03-01T00:43:28;99183.41;;;-0.77;49.09
63343;BME280;49465;57.664;39.686;2023-03-01T00:46:01;99186.56;;;-0.69;48.62
63343;BME280;49465;57.664;39.686;2023-03-01T00:48:31;99179.66;;;-0.69;48.62
63343;BME280;49465;57.664;39.686;2023-03-01T00:51:03;99176.41;;;-1.49;50.01
63343;BME280;49465;57.664;39.686;2023-03-01T00:53:30;99184.44;;;-0.58;48.31
63343;BME280;49465;57.664;39.686;2023-03-01T00:55:59;99187.03;;;-1.33;49.92
63343;BME280;49465;57.664;39.686;2023-03-01T00:58:26;99188.81;;;-0.60;48.53
63343;BME280;49465;57.664;39.686;2023-03-01T01:00:55;99183.59;;;-1.32;49.63
63343;BME280;49465;57.664;39.686;2023-03-01T01:03:22;99179.53;;;-0.89;49.03
63343;BME280;49465;57.664;39.686;2023-03-01T01:05:53;99179.81;;;-0.97;48.98
63343;BME280;49465;57.664;39.686;2023-03-01T01:08:20;99174.00;;;-0.78;48.57
63343;BME280;49465;57.664;39.686;2023-03-01T01:10:47;99183.66;;;-1.61;49.75
63343;BME280;49465;57.664;39.686;2023-03-01T01:13:14;99190.09;;;-0.72;48.24
63343;BME280;49465;57.664;39.686;2023-03-01T01:15:40;99186.72;;;-0.74;48.50
63343;BME280;49465;57.664;39.686;2023-03-01T01:18:07;99187.72;;;-0.78;48.34
63343;BME280;49465;57.664;39.686;2023-03-01T01:20:34;99193.97;;;-0.60;48.22
63343;BME280;49465;57.664;39.686;2023-03-01T01:23:01;99188.69;;;-0.57;47.84
63343;BME280;49465;57.664;39.686;2023-03-01T01:25:29;99189.09;;;-0.68;47.85
63343;BME280;49465;57.664;39.686;2023-03-01T01:27:56;99188.88;;;-1.64;49.18
63343;BME280;49465;57.664;39.686;2023-03-01T01:30:22;99197.28;;;-1.85;48.95
63343;BME280;49465;57.664;39.686;2023-03-01T01:32:48;99196.34;;;-1.83;49.30
63343;BME280;49465;57.664;39.686;2023-03-01T01:35:15;99194.94;;;-0.88;47.94
63343;BME280;49465;57.664;39.686;2023-03-01T01:37:44;99196.72;;;-0.90;48.13
63343;BME280;49465;57.664;39.686;2023-03-01T01:40:10;99196.38;;;-0.81;47.79
63343;BME280;49465;57.664;39.686;2023-03-01T01:42:40;99196.00;;;-1.72;48.71
63343;BME280;49465;57.664;39.686;2023-03-01T01:48:00;99198.88;;;-0.77;47.83
63343;BME280;49465;57.664;39.686;2023-03-01T01:50:30;99202.63;;;-0.86;48.06
63343;BME280;49465;57.664;39.686;2023-03-01T01:53:06;99195.25;;;-0.97;48.02
63343;BME280;49465;57.664;39.686;2023-03-01T01:55:37;99201.81;;;-1.13;48.59
63343;BME280;49465;57.664;39.686;2023-03-01T01:58:08;99202.41;;;-1.32;48.79
63343;BME280;49465;57.664;39.686;2023-03-01T02:00:35;99202.69;;;-1.94;49.97
63343;BME280;49465;57.664;39.686;2023-03-01T02:03:11;99205.00;;;-1.32;49.17
63343;BME280;49465;57.664;39.686;2023-03-01T02:06:03;99208.47;;;-1.33;49.23
63343;BME280;49465;57.664;39.686;2023-03-01T02:08:35;99212.47;;;-1.77;49.96
63343;BME280;49465;57.664;39.686;2023-03-01T02:11:06;99201.94;;;-1.70;49.94
63343;BME280;49465;57.664;39.686;2023-03-01T02:13:33;99211.97;;;-1.35;49.31
63343;BME280;49465;57.664;39.686;2023-03-01T02:16:02;99211.16;;;-2.19;50.91
63343;BME280;49465;57.664;39.686;2023-03-01T02:18:35;99209.97;;;-1.52;49.88
63343;BME280;49465;57.664;39.686;2023-03-01T02:23:43;99218.53;;;-2.08;50.84
63343;BME280;49465;57.664;39.686;2023-03-01T02:26:29;99219.78;;;-1.38;49.60
63343;BME280;49465;57.664;39.686;2023-03-01T02:29:00;99224.56;;;-1.53;49.56
63343;BME280;49465;57.664;39.686;2023-03-01T02:31:27;99219.88;;;-1.42;49.83
63343;BME280;49465;57.664;39.686;2023-03-01T02:34:18;99222.53;;;-1.18;49.31
63343;BME280;49465;57.664;39.686;2023-03-01T02:36:51;99232.66;;;-1.38;49.85
63343;BME280;49465;57.664;39.686;2023-03-01T02:42:13;99230.44;;;-0.97;48.46
63343;BME280;49465;57.664;39.686;2023-03-01T02:44:43;99237.50;;;-1.04;48.61
63343;BME280;49465;57.664;39.686;2023-03-01T02:47:13;99237.16;;;-0.93;48.71
63343;BME280;49465;57.664;39.686;2023-03-01T02:49:39;99234.28;;;-1.09;48.56
63343;BME280;49465;57.664;39.686;2023-03-01T02:52:34;99238.44;;;-1.32;49.58
63343;BME280;49465;57.664;39.686;2023-03-01T02:57:34;99240.09;;;-2.14;51.66
63343;BME280;49465;57.664;39.686;2023-03-01T03:00:06;99234.03;;;-1.28;49.48
63343;BME280;49465;57.664;39.686;2023-03-01T03:02:35;99231.56;;;-1.31;49.49
63343;BME280;49465;57.664;39.686;2023-03-01T03:07:44;99238.22;;;-0.99;49.20
63343;BME280;49465;57.664;39.686;2023-03-01T03:10:23;99237.47;;;-1.03;48.88
63343;BME280;49465;57.664;39.686;2023-03-01T03:12:54;99228.66;;;-0.95;48.82
63343;BME280;49465;57.664;39.686;2023-03-01T03:15:21;99226.94;;;-1.22;49.49
63343;BME280;49465;57.664;39.686;2023-03-01T03:17:49;99227.34;;;-2.17;51.06
63343;BME280;49465;57.664;39.686;2023-03-01T03:20:21;99224.97;;;-1.40;49.88
63343;BME280;49465;57.664;39.686;2023-03-01T03:22:49;99226.56;;;-1.36;49.56
63343;BME280;49465;57.664;39.686;2023-03-01T03:25:20;99222.66;;;-1.48;50.29
63343;BME280;49465;57.664;39.686;2023-03-01T03:27:52;99234.47;;;-1.15;49.13
63343;BME280;49465;57.664;39.686;2023-03-01T03:30:33;99240.41;;;-1.13;48.83
63343;BME280;49465;57.664;39.686;2023-03-01T03:33:00;99233.69;;;-0.92;48.97
63343;BME280;49465;57.664;39.686;2023-03-01T03:35:30;99235.47;;;-0.94;49.04
63343;BME280;49465;57.664;39.686;2023-03-01T03:37:58;99234.75;;;-0.98;48.56
63343;BME280;49465;57.664;39.686;2023-03-01T03:42:59;99238.38;;;-1.85;49.97
63343;BME280;49465;57.664;39.686;2023-03-01T03:45:28;99237.94;;;-1.16;48.59
63343;BME280;49465;57.664;39.686;2023-03-01T03:47:57;99239.50;;;-1.12;48.80
63343;BME280;49465;57.664;39.686;2023-03-01T03:50:26;99237.94;;;-1.16;48.90
63343;BME280;49465;57.664;39.686;2023-03-01T03:52:57;99238.22;;;-0.99;48.87
63343;BME280;49465;57.664;39.686;2023-03-01T03:55:26;99233.06;;;-0.99;48.37
63343;BME280;49465;57.664;39.686;2023-03-01T03:57:58;99233.44;;;-1.36;49.16
63343;BME280;49465;57.664;39.686;2023-03-01T04:00:28;99231.66;;;-1.34;49.42
63343;BME280;49465;57.664;39.686;2023-03-01T04:02:57;99239.44;;;-1.92;50.33
63343;BME280;49465;57.664;39.686;2023-03-01T04:05:23;99234.63;;;-1.47;49.58
63343;BME280;49465;57.664;39.686;2023-03-01T04:07:50;99243.28;;;-1.23;48.97
63343;BME280;49465;57.664;39.686;2023-03-01T04:10:31;99241.94;;;-1.89;49.70
63343;BME280;49465;57.664;39.686;2023-03-01T04:12:58;99240.50;;;-1.16;48.97
63343;BME280;49465;57.664;39.686;2023-03-01T04:15:28;99238.25;;;-1.01;48.36
63343;BME280;49465;57.664;39.686;2023-03-01T04:17:57;99235.84;;;-1.05;48.69
63343;BME280;49465;57.664;39.686;2023-03-01T04:20:33;99240.13;;;-1.86;49.96
63343;BME280;49465;57.664;39.686;2023-03-01T04:23:03;99225.88;;;-1.41;48.78
63343;BME280;49465;57.664;39.686;2023-03-01T04:25:40;99231.56;;;-1.31;48.62
63343;BME280;49465;57.664;39.686;2023-03-01T04:28:08;99241.09;;;-1.08;48.12
63343;BME280;49465;57.664;39.686;2023-03-01T04:30:36;99242.91;;;-1.12;48.47
63343;BME280;49465;57.664;39.686;2023-03-01T04:33:06;99253.13;;;-1.09;48.17
63343;BME280;49465;57.664;39.686;2023-03-01T04:35:36;99254.75;;;-1.06;48.41
63343;BME280;49465;57.664;39.686;2023-03-01T04:38:08;99261.66;;;-1.08;47.71
63343;BME280;49465;57.664;39.686;2023-03-01T04:40:35;99267.44;;;-1.27;48.44
63343;BME280;49465;57.664;39.686;2023-03-01T04:43:02;99267.63;;;-1.33;48.93
63343;BME280;49465;57.664;39.686;2023-03-01T04:45:32;99266.84;;;-1.35;48.53
63343;BME280;49465;57.664;39.686;2023-03-01T04:48:00;99271.00;;;-1.31;48.35
63343;BME280;49465;57.664;39.686;2023-03-01T04:50:26;99274.41;;;-1.30;48.51
63343;BME280;49465;57.664;39.686;2023-03-01T04:52:56;99273.88;;;-1.42;49.02
63343;BME280;49465;57.664;39.686;2023-03-01T04:55:26;99283.84;;;-1.31;48.83
63343;BME280;49465;57.664;39.686;2023-03-01T04:57:53;99277.09;;;-1.62;49.18
63343;BME280;49465;57.664;39.686;2023-03-01T05:00:23;99279.03;;;-1.42;48.84
63343;BME280;49465;57.664;39.686;2023-03-01T05:03:02;99279.00;;;-1.68;49.44
63343;BME280;49465;57.664;39.686;2023-03-01T05:05:35;99284.47;;;-1.51;49.18
63343;BME280;49465;57.664;39.686;2023-03-01T05:08:06;99284.59;;;-1.84;49.95
63343;BME280;49465;57.664;39.686;2023-03-01T05:10:36;99276.84;;;-1.82;49.82
63343;BME280;49465;57.664;39.686;2023-03-01T05:13:07;99274.41;;;-1.87;50.48
63343;BME280;49465;57.664;39.686;2023-03-01T05:15:36;99283.09;;;-1.91;50.43
63343;BME280;49465;57.664;39.686;2023-03-01T05:18:06;99283.28;;;-1.69;50.17
63343;BME280;49465;57.664;39.686;2023-03-01T05:20:40;99296.13;;;-1.39;49.06
63343;BME280;49465;57.664;39.686;2023-03-01T05:23:07;99289.97;;;-2.21;50.40
63343;BME280;49465;57.664;39.686;2023-03-01T05:25:35;99290.97;;;-2.27;50.95
63343;BME280;49465;57.664;39.686;2023-03-01T05:28:12;99295.47;;;-1.74;50.13
63343;BME280;49465;57.664;39.686;2023-03-01T05:30:40;99304.75;;;-2.29;50.74
63343;BME280;49465;57.664;39.686;2023-03-01T05:33:12;99306.78;;;-1.81;50.60
63343;BME280;49465;57.664;39.686;2023-03-01T05:35:43;99309.47;;;-1.84;50.46
63343;BME280;49465;57.664;39.686;2023-03-01T05:38:18;99307.31;;;-2.29;51.46
63343;BME280;49465;57.664;39.686;2023-03-01T05:40:47;99302.78;;;-1.90;50.96
63343;BME280;49465;57.664;39.686;2023-03-01T05:43:17;99319.63;;;-1.81;50.71
63343;BME280;49465;57.664;39.686;2023-03-01T05:45:44;99319.50;;;-2.38;52.21
63343;BME280;49465;57.664;39.686;2023-03-01T05:48:14;99331.84;;;-1.88;51.17
63343;BME280;49465;57.664;39.686;2023-03-01T05:50:45;99328.94;;;-1.77;50.84
63343;BME280;49465;57.664;39.686;2023-03-01T05:53:20;99338.16;;;-1.70;50.67
63343;BME280;49465;57.664;39.686;2023-03-01T05:55:52;99343.59;;;-1.81;51.14
63343;BME280;49465;57.664;39.686;2023-03-01T05:58:22;99342.38;;;-1.67;50.52
63343;BME280;49465;57.664;39.686;2023-03-01T06:00:51;99337.72;;;-1.54;50.60
63343;BME280;49465;57.664;39.686;2023-03-01T06:03:18;99339.28;;;-2.10;50.80
63343;BME280;49465;57.664;39.686;2023-03-01T06:05:47;99342.94;;;-2.17;51.58
63343;BME280;49465;57.664;39.686;2023-03-01T06:08:27;99350.69;;;-1.59;50.56
63343;BME280;49465;57.664;39.686;2023-03-01T06:10:54;99352.47;;;-2.22;51.24
63343;BME280;49465;57.664;39.686;2023-03-01T06:13:21;99344.13;;;-1.69;51.50
63343;BME280;49465;57.664;39.686;2023-03-01T06:15:47;99346.69;;;-1.68;51.19
63343;BME280;49465;57.664;39.686;2023-03-01T06:18:17;99359.03;;;-1.23;50.24
63343;BME280;49465;57.664;39.686;2023-03-01T06:20:43;99349.78;;;-1.56;50.79
63343;BME280;49465;57.664;39.686;2023-03-01T06:23:12;99355.09;;;-1.34;50.63
63343;BME280;49465;57.664;39.686;2023-03-01T06:25:38;99354.00;;;-2.15;52.08
63343;BME280;49465;57.664;39.686;2023-03-01T06:28:07;99362.88;;;-1.95;51.47
63343;BME280;49465;57.664;39.686;2023-03-01T06:30:37;99356.66;;;-1.29;50.78
63343;BME280;49465;57.664;39.686;2023-03-01T06:33:09;99350.66;;;-1.87;51.96
63343;BME280;49465;57.664;39.686;2023-03-01T06:35:38;99348.88;;;-1.55;51.16
63343;BME280;49465;57.664;39.686;2023-03-01T06:38:14;99356.44;;;-1.81;51.65
63343;BME280;49465;57.664;39.686;2023-03-01T06:40:41;99345.63;;;-1.32;50.66
63343;BME280;49465;57.664;39.686;2023-03-01T06:43:13;99361.28;;;-1.40;50.69
63343;BME280;49465;57.664;39.686;2023-03-01T06:45:42;99366.03;;;-1.56;51.27
63343;BME280;49465;57.664;39.686;2023-03-01T06:48:14;99370.16;;;-1.80;51.72
63343;BME280;49465;57.664;39.686;2023-03-01T06:50:43;99368.63;;;-1.86;51.92
63343;BME280;49465;57.664;39.686;2023-03-01T06:53:09;99382.22;;;-1.24;50.88
63343;BME280;49465;57.664;39.686;2023-03-01T06:55:38;99370.13;;;-1.21;50.50
63343;BME280;49465;57.664;39.686;2023-03-01T06:58:10;99362.19;;;-1.71;50.91
63343;BME280;49465;57.664;39.686;2023-03-01T07:00:37;99358.28;;;-1.84;51.61
63343;BME280;49465;57.664;39.686;2023-03-01T07:03:03;99362.47;;;-0.95;49.98
63343;BME280;49465;57.664;39.686;2023-03-01T07:05:35;99353.69;;;-1.16;50.70
63343;BME280;49465;57.664;39.686;2023-03-01T07:08:07;99362.28;;;-0.89;50.21
63343;BME280;49465;57.664;39.686;2023-03-01T07:10:39;99362.06;;;-1.10;50.96
63343;BME280;49465;57.664;39.686;2023-03-01T07:13:09;99372.72;;;-1.50;50.87
63343;BME280;49465;57.664;39.686;2023-03-01T07:15:35;99381.47;;;-1.00;50.70
63343;BME280;49465;57.664;39.686;2023-03-01T07:18:07;99371.63;;;-1.43;51.29
63343;BME280;49465;57.664;39.686;2023-03-01T07:20:37;99380.94;;;-1.09;51.03
63343;BME280;49465;57.664;39.686;2023-03-01T07:23:14;99376.97;;;-0.93;51.27
63343;BME280;49465;57.664;39.686;2023-03-01T07:25:41;99387.38;;;-1.52;51.47
63343;BME280;49465;57.664;39.686;2023-03-01T07:28:10;99392.59;;;-1.55;52.30
63343;BME280;49465;57.664;39.686;2023-03-01T07:30:45;99386.38;;;-0.92;51.17
63343;BME280;49465;57.664;39.686;2023-03-01T07:33:11;99378.88;;;-0.98;51.49
63343;BME280;49465;57.664;39.686;2023-03-01T07:35:41;99370.88;;;-0.90;51.62
63343;BME280;49465;57.664;39.686;2023-03-01T07:38:14;99378.28;;;-1.36;51.94
63343;BME280;49465;57.664;39.686;2023-03-01T07:40:41;99376.22;;;-1.23;51.03
63343;BME280;49465;57.664;39.686;2023-03-01T07:43:18;99375.09;;;-0.88;51.76
63343;BME280;49465;57.664;39.686;2023-03-01T07:45:50;99383.66;;;-0.87;51.93
63343;BME280;49465;57.664;39.686;2023-03-01T07:48:20;99391.56;;;-0.93;52.17
63343;BME280;49465;57.664;39.686;2023-03-01T07:50:49;99406.34;;;-1.28;52.25
63343;BME280;49465;57.664;39.686;2023-03-01T07:53:19;99415.72;;;-1.26;52.46
63343;BME280;49465;57.664;39.686;2023-03-01T07:55:45;99397.63;;;-1.23;51.97
63343;BME280;49465;57.664;39.686;2023-03-01T07:58:14;99401.59;;;-1.12;51.55
63343;BME280;49465;57.664;39.686;2023-03-01T08:00:46;99392.09;;;-1.10;51.57
63343;BME280;49465;57.664;39.686;2023-03-01T08:03:15;99389.50;;;-0.30;50.78
63343;BME280;49465;57.664;39.686;2023-03-01T08:05:44;99393.63;;;-0.25;50.80
63343;BME280;49465;57.664;39.686;2023-03-01T08:08:13;99392.81;;;-0.78;50.56
63343;BME280;49465;57.664;39.686;2023-03-01T08:10:40;99395.22;;;0.03;50.53
63343;BME280;49465;57.664;39.686;2023-03-01T08:13:11;99400.41;;;-0.74;51.09
63343;BME280;49465;57.664;39.686;2023-03-01T08:15:37;99393.28;;;-0.41;51.63
63343;BME280;49465;57.664;39.686;2023-03-01T08:18:04;99395.53;;;-0.83;51.51
63343;BME280;49465;57.664;39.686;2023-03-01T08:20:33;99395.44;;;-0.80;51.56
63343;BME280;49465;57.664;39.686;2023-03-01T08:22:59;99393.78;;;-0.83;52.16
63343;BME280;49465;57.664;39.686;2023-03-01T08:25:26;99401.72;;;-0.89;51.66
63343;BME280;49465;57.664;39.686;2023-03-01T08:27:52;99392.88;;;-1.08;52.17
63343;BME280;49465;57.664;39.686;2023-03-01T08:30:24;99404.25;;;-0.87;51.66
63343;BME280;49465;57.664;39.686;2023-03-01T08:32:53;99403.97;;;-1.06;52.30
63343;BME280;49465;57.664;39.686;2023-03-01T08:35:20;99403.69;;;-0.44;51.55
63343;BME280;49465;57.664;39.686;2023-03-01T08:37:53;99397.22;;;-0.82;51.29
63343;BME280;49465;57.664;39.686;2023-03-01T08:40:22;99390.97;;;-0.75;51.40
63343;BME280;49465;57.664;39.686;2023-03-01T08:42:49;99391.13;;;-0.53;51.78
63343;BME280;49465;57.664;39.686;2023-03-01T08:45:18;99391.69;;;0.06;50.80
63343;BME280;49465;57.664;39.686;2023-03-01T08:47:50;99392.31;;;-0.63;50.74
63343;BME280;49465;57.664;39.686;2023-03-01T08:50:20;99390.34;;;0.19;50.42
63343;BME280;49465;57.664;39.686;2023-03-01T08:52:49;99389.13;;;-0.45;50.26
63343;BME280;49465;57.664;39.686;2023-03-01T08:55:21;99389.75;;;-0.38;50.90
63343;BME280;49465;57.664;39.686;2023-03-01T08:57:49;99403.50;;;-0.64;51.48
63343;BME280;49465;57.664;39.686;2023-03-01T09:00:16;99384.19;;;-0.51;50.84
63343;BME280;49465;57.664;39.686;2023-03-01T09:02:46;99397.44;;;-0.36;50.78
63343;BME280;49465;57.664;39.686;2023-03-01T09:05:15;99396.50;;;-0.34;50.34
63343;BME280;49465;57.664;39.686;2023-03-01T09:07:41;99389.81;;;-0.40;50.64
63343;BME280;49465;57.664;39.686;2023-03-01T09:10:08;99405.59;;;-0.49;51.20
63343;BME280;49465;57.664;39.686;2023-03-01T09:12:35;99388.50;;;-0.26;50.68
63343;BME280;49465;57.664;39.686;2023-03-01T09:15:04;99393.34;;;-0.17;50.69
63343;BME280;49465;57.664;39.686;2023-03-01T09:17:31;99391.13;;;-0.28;50.84
63343;BME280;49465;57.664;39.686;2023-03-01T09:19:57;99384.03;;;-0.21;50.51
63343;BME280;49465;57.664;39.686;2023-03-01T09:22:27;99391.97;;;-0.02;50.49
63343;BME280;49465;57.664;39.686;2023-03-01T09:24:55;99392.13;;;-0.07;50.24
63343;BME280;49465;57.664;39.686;2023-03-01T09:27:24;99386.47;;;0.07;50.38
63343;BME280;49465;57.664;39.686;2023-03-01T09:29:51;99379.03;;;-0.01;50.19
63343;BME280;49465;57.664;39.686;2023-03-01T09:32:17;99376.50;;;0.22;50.10
63343;BME280;49465;57.664;39.686;2023-03-01T09:34:44;99385.47;;;0.11;50.46
63343;BME280;49465;57.664;39.686;2023-03-01T09:37:29;99381.59;;;-0.01;50.44
63343;BME280;49465;57.664;39.686;2023-03-01T09:39:55;99380.88;;;0.19;50.01
63343;BME280;49465;57.664;39.686;2023-03-01T09:42:22;99383.13;;;0.29;49.81
63343;BME280;49465;57.664;39.686;2023-03-01T09:45:16;99398.50;;;0.55;50.13
63343;BME280;49465;57.664;39.686;2023-03-01T09:47:51;99385.44;;;0.36;50.25
63343;BME280;49465;57.664;39.686;2023-03-01T09:50:21;99382.84;;;0.36;50.08
63343;BME280;49465;57.664;39.686;2023-03-01T09:52:50;99366.22;;;0.45;49.59
63343;BME280;49465;57.664;39.686;2023-03-01T09:55:32;99368.22;;;0.83;49.52
63343;BME280;49465;57.664;39.686;2023-03-01T09:58:46;99378.00;;;0.96;49.45
63343;BME280;49465;57.664;39.686;2023-03-01T10:01:23;99370.84;;;0.59;49.22
63343;BME280;49465;57.664;39.686;2023-03-01T10:06:29;99370.56;;;0.67;49.31
63343;BME280;49465;57.664;39.686;2023-03-01T10:09:15;99369.09;;;0.82;50.41
63343;BME280;49465;57.664;39.686;2023-03-01T10:11:48;99366.13;;;0.92;49.71
63343;BME280;49465;57.664;39.686;2023-03-01T10:19:56;99357.22;;;0.77;48.76
63343;BME280;49465;57.664;39.686;2023-03-01T10:22:31;99355.38;;;0.81;49.22
63343;BME280;49465;57.664;39.686;2023-03-01T10:25:04;99353.47;;;0.63;48.75
63343;BME280;49465;57.664;39.686;2023-03-01T10:33:00;99353.91;;;0.96;48.02
63343;BME280;49465;57.664;39.686;2023-03-01T10:35:32;99363.69;;;0.88;48.37
63343;BME280;49465;57.664;39.686;2023-03-01T10:38:11;99356.28;;;1.02;48.46
63343;BME280;49465;57.664;39.686;2023-03-01T10:40:56;99355.66;;;0.95;48.80
63343;BME280;49465;57.664;39.686;2023-03-01T10:43:57;99354.38;;;1.28;48.04
63343;BME280;49465;57.664;39.686;2023-03-01T10:46:34;99356.19;;;0.82;48.63
63343;BME280;49465;57.664;39.686;2023-03-01T10:51:46;99358.59;;;0.64;48.65
63343;BME280;49465;57.664;39.686;2023-03-01T10:54:25;99356.31;;;1.01;48.39
63343;BME280;49465;57.664;39.686;2023-03-01T10:57:02;99362.63;;;0.93;48.23
63343;BME280;49465;57.664;39.686;2023-03-01T10:59:36;99362.28;;;0.81;47.44
63343;BME280;49465;57.664;39.686;2023-03-01T11:02:22;99357.09;;;1.03;49.01
63343;BME280;49465;57.664;39.686;2023-03-01T11:07:24;99373.19;;;0.65;47.60
63343;BME280;49465;57.664;39.686;2023-03-01T11:09:50;99374.03;;;0.88;48.83
63343;BME280;49465;57.664;39.686;2023-03-01T11:12:17;99378.09;;;0.71;48.25
63343;BME280;49465;57.664;39.686;2023-03-01T11:15:19;99381.84;;;1.08;48.26
63343;BME280;49465;57.664;39.686;2023-03-01T11:17:46;99383.25;;;0.71;47.78
63343;BME280;49465;57.664;39.686;2023-03-01T11:22:53;99378.84;;;0.97;47.53
63343;BME280;49465;57.664;39.686;2023-03-01T11:25:25;99370.59;;;1.09;46.74
63343;BME280;49465;57.664;39.686;2023-03-01T11:27:54;99368.22;;;1.25;46.95
63343;BME280;49465;57.664;39.686;2023-03-01T11:30:27;99373.91;;;1.13;47.41
63343;BME280;49465;57.664;39.686;2023-03-01T11:33:21;99360.09;;;1.34;48.00
63343;BME280;49465;57.664;39.686;2023-03-01T11:38:37;99365.94;;;1.40;47.39
63343;BME280;49465;57.664;39.686;2023-03-01T11:41:08;99370.75;;;1.27;47.62
63343;BME280;49465;57.664;39.686;2023-03-01T11:44:01;99366.91;;;1.57;48.02
63343;BME280;49465;57.664;39.686;2023-03-01T11:49:40;99362.47;;;1.61;46.72
63343;BME280;49465;57.664;39.686;2023-03-01T11:55:30;99354.22;;;1.92;46.85
63343;BME280;49465;57.664;39.686;2023-03-01T12:01:27;99355.16;;;1.71;46.36
63343;BME280;49465;57.664;39.686;2023-03-01T12:10:06;99347.25;;;2.32;45.90
63343;BME280;49465;57.664;39.686;2023-03-01T12:18:37;99348.91;;;1.95;46.59
63343;BME280;49465;57.664;39.686;2023-03-01T12:21:27;99343.91;;;2.30;45.89
63343;BME280;49465;57.664;39.686;2023-03-01T12:29:26;99351.13;;;2.24;44.20
63343;BME280;49465;57.664;39.686;2023-03-01T12:32:04;99343.44;;;1.83;45.04
63343;BME280;49465;57.664;39.686;2023-03-01T12:39:57;99337.06;;;2.10;44.21
63343;BME280;49465;57.664;39.686;2023-03-01T12:51:03;99342.84;;;2.15;44.51
63343;BME280;49465;57.664;39.686;2023-03-01T12:53:53;99347.63;;;2.44;45.08
63343;BME280;49465;57.664;39.686;2023-03-01T12:56:23;99340.84;;;2.22;44.24
63343;BME280;49465;57.664;39.686;2023-03-01T12:59:27;99340.97;;;2.57;44.83
63343;BME280;49465;57.664;39.686;2023-03-01T13:02:23;99339.97;;;2.60;44.62
63343;BME280;49465;57.664;39.686;2023-03-01T13:07:58;99331.69;;;2.53;44.57
63343;BME280;49465;57.664;39.686;2023-03-01T13:13:27;99336.56;;;2.21;45.34
63343;BME280;49465;57.664;39.686;2023-03-01T13:15:54;99337.41;;;1.82;44.66
63343;BME280;49465;57.664;39.686;2023-03-01T13:21:02;99322.19;;;1.76;46.07
63343;BME280;49465;57.664;39.686;2023-03-01T13:23:34;99335.25;;;1.73;45.34
63343;BME280;49465;57.664;39.686;2023-03-01T13:34:01;99335.50;;;1.46;45.24
63343;BME280;49465;57.664;39.686;2023-03-01T13:39:27;99328.28;;;1.75;45.37
63343;BME280;49465;57.664;39.686;2023-03-01T13:41:56;99325.69;;;1.34;46.12
63343;BME280;49465;57.664;39.686;2023-03-01T13:44:37;99330.09;;;1.73;45.42
63343;BME280;49465;57.664;39.686;2023-03-01T13:52:39;99334.50;;;1.90;44.86
63343;BME280;49465;57.664;39.686;2023-03-01T13:57:55;99339.31;;;1.58;45.45
63343;BME280;49465;57.664;39.686;2023-03-01T14:00:39;99334.78;;;1.22;46.04
63343;BME280;49465;57.664;39.686;2023-03-01T14:03:15;99318.22;;;1.28;45.72
63343;BME280;49465;57.664;39.686;2023-03-01T14:06:12;99332.53;;;1.35;45.34
63343;BME280;49465;57.664;39.686;2023-03-01T14:08:40;99325.28;;;1.23;44.95
63343;BME280;49465;57.664;39.686;2023-03-01T14:19:20;99323.75;;;1.18;44.41
63343;BME280;49465;57.664;39.686;2023-03-01T14:22:17;99320.78;;;1.28;44.59
63343;BME280;49465;57.664;39.686;2023-03-01T14:24:49;99321.63;;;1.49;44.44
63343;BME280;49465;57.664;39.686;2023-03-01T14:27:20;99312.72;;;1.35;44.73
63343;BME280;49465;57.664;39.686;2023-03-01T14:29:58;99325.88;;;1.50;44.03
63343;BME280;49465;57.664;39.686;2023-03-01T14:32:38;99321.00;;;1.44;44.41
63343;BME280;49465;57.664;39.686;2023-03-01T14:35:31;99317.38;;;1.48;44.72
63343;BME280;49465;57.664;39.686;2023-03-01T14:38:01;99317.56;;;1.43;44.19
63343;BME280;49465;57.664;39.686;2023-03-01T14:40:35;99314.91;;;1.45;44.40
63343;BME280;49465;57.664;39.686;2023-03-01T14:43:11;99321.25;;;1.37;44.40
63343;BME280;49465;57.664;39.686;2023-03-01T14:45:38;99322.78;;;1.21;44.38
63343;BME280;49465;57.664;39.686;2023-03-01T14:48:08;99330.06;;;1.52;44.38
63343;BME280;49465;57.664;39.686;2023-03-01T14:50:42;99330.47;;;1.23;44.19
63343;BME280;49465;57.664;39.686;2023-03-01T14:53:24;99331.59;;;1.15;45.52
63343;BME280;49465;57.664;39.686;2023-03-01T14:55:58;99338.84;;;1.07;45.68
63343;BME280;49465;57.664;39.686;2023-03-01T14:58:28;99332.47;;;0.94;45.99
63343;BME280;49465;57.664;39.686;2023-03-01T15:01:00;99331.16;;;1.06;45.74
63343;BME280;49465;57.664;39.686;2023-03-01T15:03:42;99327.97;;;0.99;45.97
63343;BME280;49465;57.664;39.686;2023-03-01T15:06:18;99330.72;;;1.16;45.59
63343;BME280;49465;57.664;39.686;2023-03-01T15:08:52;99328.66;;;1.66;45.51
63343;BME280;49465;57.664;39.686;2023-03-01T15:13:55;99312.94;;;0.66;46.73
63343;BME280;49465;57.664;39.686;2023-03-01T15:16:33;99319.97;;;0.85;46.89